Time;durP1;ratioP1;P1;durP2;ratioP2;P2;SDS_P1;SDS_P2;PMS_P1;PMS_P2;Temp;Humidity;BMP_temperature;BMP_pressure;BME280_temperature;BME280_humidity;BME280_pressure;Samples;Min_cycle;Max_cycle;Signal;HPM_P1;HPM_P2
2022/11/24 00:01:53;;;;;;;14.93;6.18;;;7.90;82.50;;;;;;5096047;28;20064;-79
2022/11/24 00:04:19;;;;;;;15.60;6.13;;;7.90;82.50;;;;;;5062470;28;20039;-79
2022/11/24 00:06:45;;;;;;;18.92;6.20;;;7.90;82.60;;;;;;5095721;28;20060;-79
2022/11/24 00:09:11;;;;;;;17.90;5.57;;;7.90;82.60;;;;;;5078991;28;20063;-79
2022/11/24 00:11:37;;;;;;;19.70;6.88;;;7.90;82.70;;;;;;5078931;28;20395;-79
2022/11/24 00:14:04;;;;;;;20.02;6.45;;;7.80;82.70;;;;;;5078635;28;20089;-79
2022/11/24 00:16:34;;;;;;;18.95;6.32;;;7.90;82.80;;;;;;5095434;28;20032;-79
2022/11/24 00:19:02;;;;;;;17.70;6.47;;;7.90;82.80;;;;;;5095525;28;20074;-79
2022/11/24 00:21:29;;;;;;;19.40;5.88;;;7.80;82.80;;;;;;5078660;28;20043;-79
2022/11/24 00:23:56;;;;;;;26.40;6.32;;;8.00;83.00;;;;;;5095374;28;20043;-80
2022/11/24 00:26:27;;;;;;;17.77;5.45;;;7.80;82.90;;;;;;5078551;28;20101;-79
2022/11/24 00:28:55;;;;;;;18.00;5.07;;;7.80;83.00;;;;;;5095285;28;20043;-79
2022/11/24 00:31:22;;;;;;;19.55;5.63;;;7.80;83.00;;;;;;5095399;28;20052;-79
2022/11/24 00:33:49;;;;;;;21.85;5.90;;;7.80;83.00;;;;;;5095287;28;20396;-79
2022/11/24 00:36:17;;;;;;;17.98;5.40;;;7.80;83.10;;;;;;5095300;28;20118;-79
2022/11/24 00:38:44;;;;;;;16.48;5.63;;;7.70;83.00;;;;;;5096608;28;20041;-80
2022/11/24 00:41:09;;;;;;;24.10;6.53;;;7.80;83.10;;;;;;5075147;28;20072;-79
2022/11/24 00:43:35;;;;;;;19.05;6.32;;;7.80;83.20;;;;;;5075051;28;20091;-79
2022/11/24 00:46:01;;;;;;;19.27;5.80;;;7.80;83.20;;;;;;5078199;28;20040;-79
2022/11/24 00:48:27;;;;;;;15.88;5.65;;;7.80;83.60;;;;;;5094791;28;20051;-80
2022/11/24 00:51:01;;;;;;;19.08;4.97;;;7.80;83.20;;;;;;5077564;28;20039;-79
2022/11/24 00:53:27;;;;;;;22.30;6.75;;;7.80;83.30;;;;;;5094734;28;20402;-79
2022/11/24 00:55:54;;;;;;;22.65;6.57;;;7.80;83.30;;;;;;5077676;28;20039;-79
2022/11/24 00:58:20;;;;;;;18.20;5.20;;;7.80;83.30;;;;;;5077804;28;20103;-78
2022/11/24 01:00:46;;;;;;;15.65;5.53;;;7.80;83.40;;;;;;5077395;28;20036;-79
2022/11/24 01:03:13;;;;;;;23.33;5.20;;;7.80;83.30;;;;;;5060650;28;20044;-79
2022/11/24 01:05:39;;;;;;;19.83;5.13;;;7.80;83.40;;;;;;5094523;28;20079;-79
2022/11/24 01:08:05;;;;;;;15.80;5.47;;;7.80;83.40;;;;;;5077380;28;20052;-78
2022/11/24 01:10:32;;;;;;;20.15;5.55;;;7.80;83.40;;;;;;5077776;28;20044;-79
2022/11/24 01:12:58;;;;;;;26.40;6.32;;;7.80;83.50;;;;;;5094345;28;20113;-79
2022/11/24 01:15:23;;;;;;;19.35;4.88;;;7.80;83.60;;;;;;5077793;28;20040;-79
2022/11/24 01:17:49;;;;;;;15.63;4.68;;;7.80;83.60;;;;;;5077327;28;20480;-79
2022/11/24 01:20:15;;;;;;;21.00;4.47;;;7.80;83.60;;;;;;5082118;28;20070;-79
2022/11/24 01:22:41;;;;;;;17.33;4.50;;;7.80;83.60;;;;;;5094214;28;20089;-78
2022/11/24 01:25:09;;;;;;;15.52;4.72;;;7.80;83.70;;;;;;5077634;28;20032;-79
2022/11/24 01:27:35;;;;;;;20.27;4.93;;;7.80;83.70;;;;;;5094419;28;20036;-79
2022/11/24 01:30:01;;;;;;;16.85;4.60;;;7.80;83.70;;;;;;5076925;28;20051;-78
2022/11/24 01:32:26;;;;;;;21.30;5.15;;;7.90;83.80;;;;;;5093901;28;20040;-79
2022/11/24 01:34:52;;;;;;;18.77;4.50;;;7.90;83.90;;;;;;5094060;28;20036;-79
2022/11/24 01:37:18;;;;;;;25.25;5.55;;;7.80;83.80;;;;;;5077217;28;20046;-79
2022/11/24 01:39:43;;;;;;;19.50;4.57;;;7.80;83.80;;;;;;5093737;28;20043;-79
2022/11/24 01:42:09;;;;;;;16.92;4.82;;;7.90;83.90;;;;;;5093659;28;20036;-78
2022/11/24 01:44:35;;;;;;;22.02;6.13;;;7.90;83.80;;;;;;5093632;28;20031;-78
2022/11/24 01:47:17;;;;;;;17.10;4.60;;;7.90;84.20;;;;;;5093538;28;20093;-79
2022/11/24 01:49:47;;;;;;;18.70;4.20;;;7.90;83.80;;;;;;5098704;28;20040;-79
2022/11/24 01:52:21;;;;;;;20.92;5.85;;;7.90;83.80;;;;;;5087754;28;20044;-79
2022/11/24 01:54:59;;;;;;;17.30;4.53;;;7.90;83.80;;;;;;5093337;28;20115;-79
2022/11/24 01:57:35;;;;;;;13.25;3.72;;;7.90;83.80;;;;;;5093682;28;20040;-79
2022/11/24 02:00:07;;;;;;;22.75;4.38;;;7.90;83.80;;;;;;5093291;28;20039;-79
2022/11/24 02:02:33;;;;;;;19.63;4.70;;;7.90;83.70;;;;;;5093677;28;20036;-79
2022/11/24 02:05:06;;;;;;;16.55;4.25;;;7.90;83.70;;;;;;5093455;28;20044;-79
2022/11/24 02:07:34;;;;;;;20.02;4.43;;;7.90;83.80;;;;;;5093520;28;20460;-79
2022/11/24 02:10:07;;;;;;;18.45;4.32;;;7.90;83.70;;;;;;5093424;28;20040;-78
2022/11/24 02:12:35;;;;;;;21.77;4.05;;;8.00;83.90;;;;;;5093161;28;20114;-79
2022/11/24 02:15:01;;;;;;;18.23;5.25;;;8.00;83.80;;;;;;5092735;28;20060;-79
2022/11/24 02:17:27;;;;;;;19.65;4.43;;;8.00;83.80;;;;;;5092785;28;20044;-79
2022/11/24 02:19:59;;;;;;;19.23;3.95;;;8.00;83.80;;;;;;5075686;28;20032;-79
2022/11/24 02:22:31;;;;;;;16.67;4.28;;;8.00;83.80;;;;;;5093258;28;20076;-79
2022/11/24 02:25:03;;;;;;;21.75;4.53;;;8.00;83.80;;;;;;5092697;28;20032;-78
2022/11/24 02:27:29;;;;;;;26.23;5.03;;;8.00;83.80;;;;;;5092807;28;20051;-79
2022/11/24 02:29:55;;;;;;;15.65;4.05;;;8.00;83.70;;;;;;5076400;28;20039;-79
2022/11/24 02:32:22;;;;;;;23.77;4.38;;;8.10;84.20;;;;;;5093292;28;20391;-79
2022/11/24 02:34:47;;;;;;;18.08;4.68;;;8.10;83.80;;;;;;5075849;28;20425;-78
2022/11/24 02:37:13;;;;;;;19.58;4.22;;;8.10;84.20;;;;;;5076117;28;20036;-79
2022/11/24 02:39:38;;;;;;;20.25;4.60;;;8.10;83.80;;;;;;5092845;28;20368;-78
2022/11/24 02:42:09;;;;;;;19.17;3.63;;;8.10;83.90;;;;;;5092853;28;20511;-78
2022/11/24 02:44:42;;;;;;;17.55;3.78;;;8.10;83.90;;;;;;5077933;28;20043;-78
2022/11/24 02:47:10;;;;;;;17.75;4.20;;;8.20;83.90;;;;;;5076054;28;20048;-79
2022/11/24 02:49:36;;;;;;;18.08;4.13;;;8.20;83.90;;;;;;5092367;28;20126;-78
2022/11/24 02:52:02;;;;;;;15.90;3.70;;;8.20;83.90;;;;;;5092751;28;20189;-78
2022/11/24 02:54:28;;;;;;;20.50;4.40;;;8.20;83.90;;;;;;5091975;28;20044;-78
2022/11/24 02:56:53;;;;;;;18.75;4.30;;;8.20;83.90;;;;;;5093035;28;20032;-77
2022/11/24 02:59:19;;;;;;;17.88;4.25;;;8.20;83.80;;;;;;5078057;28;20036;-79
2022/11/24 03:01:45;;;;;;;20.35;4.75;;;8.20;83.80;;;;;;5076981;28;20044;-78
2022/11/24 03:04:11;;;;;;;20.92;4.75;;;8.30;83.80;;;;;;5092323;28;20047;-78
2022/11/24 03:06:37;;;;;;;18.63;3.67;;;8.30;83.70;;;;;;5075836;28;20044;-79
2022/11/24 03:09:03;;;;;;;16.77;4.50;;;8.30;83.60;;;;;;5075542;28;20048;-78
2022/11/24 03:11:29;;;;;;;16.02;3.65;;;8.30;83.60;;;;;;5092206;28;20104;-78
2022/11/24 03:13:55;;;;;;;14.88;3.63;;;8.30;83.50;;;;;;5061245;28;20037;-78
2022/11/24 03:16:21;;;;;;;19.75;3.60;;;8.30;83.40;;;;;;5095569;28;20036;-79
2022/11/24 03:18:49;;;;;;;17.77;4.30;;;8.20;83.20;;;;;;5072168;28;20044;-78
2022/11/24 03:21:14;;;;;;;15.00;3.38;;;8.30;83.20;;;;;;5055520;28;20109;-78
2022/11/24 03:23:40;;;;;;;16.85;3.65;;;8.30;83.10;;;;;;5080022;28;20123;-79
2022/11/24 03:26:07;;;;;;;16.55;3.13;;;8.30;82.90;;;;;;5092224;28;20488;-79
2022/11/24 03:28:33;;;;;;;12.32;3.75;;;8.30;82.90;;;;;;5075279;28;20040;-79
2022/11/24 03:30:59;;;;;;;17.15;3.47;;;8.30;82.80;;;;;;5091153;28;20042;-78
2022/11/24 03:33:25;;;;;;;22.13;4.25;;;8.30;82.70;;;;;;5075099;28;20384;-78
2022/11/24 03:35:50;;;;;;;14.07;3.50;;;8.20;82.60;;;;;;5091952;28;20031;-78
2022/11/24 03:38:16;;;;;;;16.05;3.55;;;8.20;82.50;;;;;;5092523;28;20407;-78
2022/11/24 03:40:41;;;;;;;18.02;3.33;;;8.20;82.40;;;;;;5103570;28;20039;-78
2022/11/24 03:43:07;;;;;;;9.93;2.70;;;8.20;82.40;;;;;;5076646;28;20421;-78
2022/11/24 03:45:33;;;;;;;16.13;3.30;;;8.20;82.30;;;;;;5091785;28;20438;-78
2022/11/24 03:47:58;;;;;;;19.30;4.03;;;8.20;82.30;;;;;;5091958;28;20048;-78
2022/11/24 03:50:24;;;;;;;9.73;3.15;;;8.20;82.20;;;;;;5075080;28;20048;-78
2022/11/24 03:52:49;;;;;;;15.13;4.15;;;8.20;82.10;;;;;;5091576;28;20048;-79
2022/11/24 03:55:15;;;;;;;21.85;4.30;;;8.10;82.00;;;;;;5092190;28;20078;-77
2022/11/24 03:57:41;;;;;;;14.75;2.90;;;8.10;82.00;;;;;;5091673;28;20037;-78
2022/11/24 04:00:07;;;;;;;9.23;3.47;;;8.10;82.00;;;;;;5091557;28;20036;-78
2022/11/24 04:02:33;;;;;;;21.42;4.85;;;8.10;82.00;;;;;;5074870;28;20035;-78
2022/11/24 04:04:58;;;;;;;12.55;3.20;;;8.10;81.90;;;;;;5075857;28;20368;-78
2022/11/24 04:07:24;;;;;;;16.15;3.05;;;8.10;81.90;;;;;;5091473;28;20052;-78
2022/11/24 04:09:50;;;;;;;17.38;3.42;;;8.10;81.90;;;;;;5091822;28;20048;-78
2022/11/24 04:14:59;;;;;;;17.23;3.58;;;8.10;81.90;;;;;;5103577;28;20044;-78
2022/11/24 04:17:26;;;;;;;11.50;2.88;;;8.10;81.90;;;;;;5074660;28;20040;-78
2022/11/24 04:19:52;;;;;;;12.85;3.50;;;8.00;81.90;;;;;;5091551;28;20043;-77
2022/11/24 04:22:17;;;;;;;13.98;3.63;;;8.00;81.90;;;;;;5091711;28;20591;-78
2022/11/24 04:24:43;;;;;;;15.23;3.95;;;8.00;81.80;;;;;;5074562;28;20517;-78
2022/11/24 04:27:08;;;;;;;13.68;3.25;;;8.00;81.90;;;;;;5074703;28;20040;-78
2022/11/24 04:29:34;;;;;;;13.05;3.13;;;8.00;81.90;;;;;;5091362;28;20439;-78
2022/11/24 04:32:00;;;;;;;21.77;3.97;;;8.00;81.90;;;;;;5074591;28;20093;-78
2022/11/24 04:34:25;;;;;;;12.30;2.95;;;7.90;81.90;;;;;;5106880;28;20071;-78
2022/11/24 04:36:51;;;;;;;13.23;3.83;;;7.90;81.90;;;;;;5091531;28;20043;-78
2022/11/24 04:39:17;;;;;;;14.35;3.05;;;8.00;81.90;;;;;;5074547;28;20043;-78
2022/11/24 04:41:43;;;;;;;16.40;4.00;;;7.90;81.90;;;;;;5092704;28;20032;-78
2022/11/24 04:44:08;;;;;;;13.48;3.70;;;7.90;81.90;;;;;;5094609;28;20048;-78
2022/11/24 04:46:34;;;;;;;17.10;3.40;;;7.90;81.90;;;;;;5094676;28;20048;-78
2022/11/24 04:49:00;;;;;;;15.57;3.25;;;7.90;81.90;;;;;;5094394;28;20040;-78
2022/11/24 04:51:26;;;;;;;13.82;3.15;;;7.90;81.90;;;;;;5077669;28;20051;-78
2022/11/24 04:53:51;;;;;;;14.73;3.72;;;7.90;81.90;;;;;;5094742;28;20048;-78
2022/11/24 04:56:17;;;;;;;15.57;3.35;;;7.80;81.80;;;;;;5095051;28;20044;-78
2022/11/24 04:58:43;;;;;;;15.68;3.17;;;7.80;81.80;;;;;;5077959;28;20032;-77
2022/11/24 05:01:08;;;;;;;14.48;3.97;;;7.80;81.90;;;;;;5094514;28;20491;-77
2022/11/24 05:03:35;;;;;;;10.98;3.28;;;7.80;81.90;;;;;;5077773;28;20094;-78
2022/11/24 05:06:01;;;;;;;17.13;3.80;;;7.70;81.90;;;;;;5094977;28;20403;-78
2022/11/24 05:08:27;;;;;;;15.35;2.75;;;7.80;82.00;;;;;;5093960;28;20063;-78
2022/11/24 05:10:52;;;;;;;14.35;2.75;;;7.80;82.00;;;;;;5077853;28;20072;-78
2022/11/24 05:13:18;;;;;;;14.93;4.05;;;7.70;82.00;;;;;;5094201;28;20041;-77
2022/11/24 05:15:44;;;;;;;15.32;4.05;;;7.70;82.00;;;;;;5077615;28;20494;-77
2022/11/24 05:18:14;;;;;;;15.15;3.35;;;7.70;82.00;;;;;;5093975;28;20472;-77
2022/11/24 05:20:39;;;;;;;12.93;3.25;;;7.70;82.10;;;;;;5093979;28;20047;-77
2022/11/24 05:23:07;;;;;;;15.15;2.80;;;7.70;82.10;;;;;;5094126;28;20046;-78
2022/11/24 05:25:33;;;;;;;13.77;3.25;;;7.60;82.10;;;;;;5094109;28;20090;-78
2022/11/24 05:28:01;;;;;;;19.33;3.58;;;7.70;82.20;;;;;;5077091;28;20032;-78
2022/11/24 05:30:28;;;;;;;13.27;3.42;;;7.70;82.30;;;;;;5094155;28;20051;-78
2022/11/24 05:32:53;;;;;;;12.10;3.22;;;7.70;82.30;;;;;;5076907;28;20049;-77
2022/11/24 05:35:20;;;;;;;16.08;3.08;;;7.60;82.30;;;;;;5093662;28;20043;-78
2022/11/24 05:37:46;;;;;;;12.18;2.38;;;7.60;82.30;;;;;;5077336;28;20074;-78
2022/11/24 05:40:12;;;;;;;16.10;4.30;;;7.60;82.30;;;;;;5093797;28;20040;-79
2022/11/24 05:42:41;;;;;;;14.27;2.65;;;7.60;82.30;;;;;;5077308;28;20436;-78
2022/11/24 05:45:13;;;;;;;14.60;3.78;;;7.60;82.40;;;;;;5094041;28;20177;-78
2022/11/24 05:47:39;;;;;;;14.43;2.97;;;7.60;82.50;;;;;;5093603;28;20048;-78
2022/11/24 05:50:06;;;;;;;14.20;2.55;;;7.60;82.90;;;;;;5093537;28;20048;-79
2022/11/24 05:52:32;;;;;;;11.68;2.78;;;7.60;82.50;;;;;;5093025;28;20043;-78
2022/11/24 05:54:57;;;;;;;13.32;3.33;;;7.60;82.60;;;;;;5076597;28;20487;-79
2022/11/24 05:57:23;;;;;;;11.30;3.03;;;7.60;82.60;;;;;;5076564;28;20034;-78
2022/11/24 05:59:49;;;;;;;13.23;3.70;;;7.60;82.70;;;;;;5076194;28;20040;-79
2022/11/24 06:02:14;;;;;;;11.65;2.75;;;7.60;82.70;;;;;;5093589;28;20036;-79
2022/11/24 06:04:40;;;;;;;11.98;2.85;;;7.60;82.70;;;;;;5076348;28;20128;-78
2022/11/24 06:07:08;;;;;;;12.63;3.00;;;7.60;82.70;;;;;;5093211;28;20075;-79
2022/11/24 06:09:36;;;;;;;19.33;3.95;;;7.60;82.80;;;;;;5093149;28;20063;-78
2022/11/24 06:12:03;;;;;;;19.58;3.45;;;7.60;82.80;;;;;;5093351;28;20368;-78
2022/11/24 06:14:28;;;;;;;21.55;3.55;;;7.60;82.80;;;;;;5093130;28;20043;-79
2022/11/24 06:16:54;;;;;;;15.43;2.92;;;7.60;82.80;;;;;;5077208;28;20028;-80
2022/11/24 06:19:20;;;;;;;19.10;3.08;;;7.60;82.80;;;;;;5096344;28;20043;-79
2022/11/24 06:21:45;;;;;;;12.80;3.13;;;7.60;82.80;;;;;;5077564;28;20169;-79
2022/11/24 06:24:11;;;;;;;15.00;3.10;;;7.60;82.80;;;;;;5092843;28;20055;-79
2022/11/24 06:26:37;;;;;;;12.63;3.15;;;7.60;82.80;;;;;;5092440;28;20534;-78
2022/11/24 06:29:02;;;;;;;15.65;2.97;;;7.70;82.80;;;;;;5108702;28;20046;-78
2022/11/24 06:31:28;;;;;;;11.75;2.83;;;7.60;82.80;;;;;;5093131;28;20054;-79
2022/11/24 06:33:54;;;;;;;14.55;3.70;;;7.60;82.80;;;;;;5074964;28;20491;-79
2022/11/24 06:36:20;;;;;;;12.80;3.22;;;7.60;82.80;;;;;;5092337;28;20047;-79
2022/11/24 06:38:45;;;;;;;14.07;4.03;;;7.60;82.80;;;;;;5092434;28;20028;-77
2022/11/24 06:41:13;;;;;;;11.80;3.03;;;7.60;82.90;;;;;;5092090;28;20382;-76
2022/11/24 06:43:39;;;;;;;13.68;3.40;;;7.70;83.00;;;;;;5092418;28;20387;-79
2022/11/24 06:46:05;;;;;;;11.55;2.63;;;7.70;83.00;;;;;;5092521;28;20051;-76
2022/11/24 06:48:31;;;;;;;14.32;3.10;;;7.60;83.00;;;;;;5058448;28;20429;-77
2022/11/24 06:51:02;;;;;;;17.17;3.80;;;7.60;83.00;;;;;;5092426;28;20040;-78
2022/11/24 06:53:36;;;;;;;17.85;3.53;;;7.60;83.10;;;;;;5092239;28;20051;-78
2022/11/24 06:56:03;;;;;;;;;;;7.70;83.20;;;;;;5092815;28;20032;-77
2022/11/24 06:58:29;;;;;;;13.43;2.95;;;7.60;82.90;;;;;;5092130;28;19962;-79
2022/11/24 07:00:55;;;;;;;19.27;3.55;;;7.80;83.20;;;;;;5092687;28;20075;-78
2022/11/24 07:03:20;;;;;;;13.55;3.33;;;7.70;83.10;;;;;;5092517;28;20051;-79
2022/11/24 07:05:46;;;;;;;14.32;3.67;;;7.70;83.20;;;;;;5075220;28;20050;-79
2022/11/24 07:08:12;;;;;;;12.60;3.65;;;7.70;83.20;;;;;;5075389;28;20052;-79
2022/11/24 07:10:38;;;;;;;11.73;4.25;;;7.70;83.20;;;;;;5075546;28;20048;-79
2022/11/24 07:13:06;;;;;;;14.38;4.03;;;7.70;83.20;;;;;;5092387;28;20059;-79
2022/11/24 07:15:33;;;;;;;12.18;3.78;;;7.70;83.30;;;;;;5075492;28;20062;-79
2022/11/24 07:17:58;;;;;;;14.63;4.07;;;7.70;83.20;;;;;;5075689;28;20517;-79
2022/11/24 07:20:24;;;;;;;12.93;3.53;;;7.70;83.30;;;;;;5091839;28;20068;-78
2022/11/24 07:22:55;;;;;;;15.40;3.83;;;7.80;83.30;;;;;;5091845;28;20070;-79
2022/11/24 07:25:20;;;;;;;12.10;4.10;;;7.80;83.40;;;;;;5091603;28;20701;-79
2022/11/24 07:27:46;;;;;;;18.23;4.72;;;7.80;83.40;;;;;;5092716;28;20042;-79
2022/11/24 07:30:12;;;;;;;13.73;3.70;;;7.70;83.30;;;;;;5092289;28;20036;-79
2022/11/24 07:32:37;;;;;;;12.52;4.38;;;7.80;83.40;;;;;;5092065;28;20051;-79
2022/11/24 07:35:03;;;;;;;15.93;4.13;;;7.80;83.40;;;;;;5091890;28;20151;-78
2022/11/24 07:37:29;;;;;;;16.10;4.53;;;7.80;83.40;;;;;;5092035;28;20032;-79
2022/11/24 07:39:55;;;;;;;13.63;4.88;;;7.80;83.50;;;;;;5091861;28;20055;-79
2022/11/24 07:42:20;;;;;;;17.73;4.80;;;7.80;83.40;;;;;;5075323;28;20032;-79
2022/11/24 07:44:46;;;;;;;12.10;4.25;;;7.80;83.40;;;;;;5092106;28;20483;-79
2022/11/24 07:47:12;;;;;;;13.73;5.07;;;7.90;83.40;;;;;;5075227;28;20547;-79
2022/11/24 07:49:37;;;;;;;13.38;4.50;;;8.00;83.50;;;;;;5075064;28;20044;-79
2022/11/24 07:52:03;;;;;;;13.73;4.65;;;7.90;83.40;;;;;;5092005;28;20404;-78
2022/11/24 07:54:30;;;;;;;12.40;4.85;;;7.90;83.40;;;;;;5091715;28;20040;-79
2022/11/24 07:56:55;;;;;;;13.15;4.50;;;7.80;83.30;;;;;;5074976;28;20044;-79
2022/11/24 07:59:21;;;;;;;15.20;5.10;;;7.90;83.30;;;;;;5074970;28;20046;-80
2022/11/24 08:01:47;;;;;;;13.80;4.38;;;7.90;83.30;;;;;;5058333;28;20130;-79
2022/11/24 08:04:12;;;;;;;15.18;5.05;;;7.90;83.20;;;;;;5074780;28;20040;-79
2022/11/24 08:06:38;;;;;;;12.65;4.25;;;7.90;83.20;;;;;;5092100;28;20040;-79
2022/11/24 08:09:04;;;;;;;15.65;4.88;;;7.90;83.20;;;;;;5058129;28;20150;-79
2022/11/24 08:11:31;;;;;;;14.13;4.78;;;7.90;83.20;;;;;;5091649;28;20040;-78
2022/11/24 08:13:57;;;;;;;14.07;5.00;;;7.90;83.10;;;;;;5075146;28;20491;-79
2022/11/24 08:16:23;;;;;;;13.90;4.25;;;7.80;83.00;;;;;;5092660;28;20074;-79
2022/11/24 08:18:53;;;;;;;11.73;4.80;;;7.90;83.00;;;;;;5095656;28;20052;-78
2022/11/24 08:21:19;;;;;;;11.85;4.75;;;7.90;83.00;;;;;;5095313;28;20040;-79
2022/11/24 08:23:45;;;;;;;12.35;4.45;;;7.90;83.00;;;;;;5078607;28;20036;-80
2022/11/24 08:26:16;;;;;;;12.55;4.03;;;7.90;83.00;;;;;;5095495;28;20101;-79
2022/11/24 08:28:42;;;;;;;13.07;4.15;;;7.90;83.00;;;;;;5095712;28;20083;-79
2022/11/24 08:31:11;;;;;;;9.00;3.42;;;7.90;83.10;;;;;;5095095;28;20101;-79
2022/11/24 08:33:37;;;;;;;9.65;3.90;;;7.90;83.20;;;;;;5095453;28;20384;-79
2022/11/24 08:36:09;;;;;;;14.00;4.57;;;7.90;83.30;;;;;;5078626;28;20365;-79
2022/11/24 08:38:35;;;;;;;8.38;3.67;;;8.00;83.50;;;;;;5095624;28;20036;-79
2022/11/24 08:41:03;;;;;;;11.52;3.75;;;8.00;83.60;;;;;;5095783;28;20403;-79
2022/11/24 08:43:28;;;;;;;7.10;3.78;;;8.10;83.70;;;;;;5095231;28;20086;-80
2022/11/24 08:45:57;;;;;;;9.00;3.08;;;8.10;83.60;;;;;;5095051;28;20487;-79
2022/11/24 08:48:23;;;;;;;7.60;2.28;;;8.20;83.70;;;;;;5095292;28;20040;-80
2022/11/24 08:50:49;;;;;;;5.80;2.15;;;8.30;83.90;;;;;;5112128;28;20396;-79
2022/11/24 08:53:14;;;;;;;8.77;2.50;;;8.40;83.90;;;;;;5094908;28;20040;-78
2022/11/24 08:55:40;;;;;;;7.63;2.40;;;8.50;83.80;;;;;;5094918;28;20119;-80
2022/11/24 08:58:06;;;;;;;7.97;2.17;;;8.50;83.50;;;;;;5094786;28;20039;-79
2022/11/24 09:00:31;;;;;;;9.27;2.40;;;8.60;83.20;;;;;;5077794;28;20074;-80
2022/11/24 09:02:58;;;;;;;5.85;2.13;;;8.70;83.00;;;;;;5078017;28;20036;-80
2022/11/24 09:05:24;;;;;;;5.78;2.10;;;8.70;82.70;;;;;;5094759;28;20127;-79
2022/11/24 09:07:50;;;;;;;5.55;1.98;;;8.80;82.40;;;;;;5094492;28;20052;-79
2022/11/24 09:10:16;;;;;;;5.28;2.33;;;8.80;82.10;;;;;;5077562;28;20564;-78
2022/11/24 09:12:44;;;;;;;6.35;1.75;;;8.90;81.90;;;;;;5094293;28;20069;-78
2022/11/24 09:15:10;;;;;;;6.13;2.03;;;8.90;81.70;;;;;;5094413;28;20040;-80
2022/11/24 09:17:36;;;;;;;5.45;1.92;;;8.90;81.90;;;;;;5077765;28;20036;-79
2022/11/24 09:20:03;;;;;;;4.80;1.73;;;9.00;81.40;;;;;;5094546;28;20051;-79
2022/11/24 09:22:30;;;;;;;5.40;2.00;;;9.00;81.30;;;;;;5077406;28;20069;-80
2022/11/24 09:24:55;;;;;;;4.88;2.00;;;9.00;81.30;;;;;;5094419;28;20090;-80
2022/11/24 09:27:21;;;;;;;6.57;2.17;;;9.00;81.20;;;;;;5077426;28;20071;-80
2022/11/24 09:29:47;;;;;;;4.68;2.17;;;9.10;81.20;;;;;;5094200;28;20237;-80
2022/11/24 09:32:12;;;;;;;6.32;2.65;;;9.20;81.30;;;;;;5094140;28;20047;-79
2022/11/24 09:34:38;;;;;;;5.07;2.20;;;9.20;81.30;;;;;;5094078;28;20096;-80
2022/11/24 09:37:03;;;;;;;7.72;2.33;;;9.20;81.20;;;;;;5060673;28;20066;-80
2022/11/24 09:39:29;;;;;;;4.38;2.15;;;9.30;81.10;;;;;;5077367;28;20136;-80
2022/11/24 09:42:14;;;;;;;4.18;1.77;;;9.30;80.90;;;;;;5095094;28;20090;-80
2022/11/24 09:44:44;;;;;;;4.60;2.08;;;9.30;80.80;;;;;;5094191;28;20040;-80
2022/11/24 09:47:16;;;;;;;6.35;2.83;;;9.30;80.60;;;;;;5094025;28;20119;-78
2022/11/24 09:49:58;;;;;;;6.22;2.50;;;9.40;80.50;;;;;;5093806;28;20058;-77
2022/11/24 09:53:02;;;;;;;7.53;2.60;;;9.40;80.40;;;;;;5084017;28;20063;-79
2022/11/24 09:55:54;;;;;;;3.83;2.35;;;9.40;80.20;;;;;;5093804;28;20080;-79
2022/11/24 09:58:49;;;;;;;7.05;2.92;;;9.40;80.20;;;;;;5088971;28;20517;-79
2022/11/24 10:01:15;;;;;;;3.53;2.10;;;9.50;80.40;;;;;;5093649;28;20040;-80
2022/11/24 10:03:44;;;;;;;5.85;2.90;;;9.50;80.50;;;;;;5093443;28;20051;-79
2022/11/24 10:06:36;;;;;;;5.63;2.70;;;9.60;80.40;;;;;;5093590;28;20562;-79
2022/11/24 10:09:09;;;;;;;4.35;2.55;;;9.60;80.10;;;;;;5093022;28;20131;-80
2022/11/24 10:12:02;;;;;;;8.18;3.50;;;9.70;80.20;;;;;;5093439;28;20234;-80
2022/11/24 10:14:51;;;;;;;5.80;3.67;;;9.80;80.00;;;;;;5056538;28;20131;-79
2022/11/24 10:17:36;;;;;;;7.70;3.67;;;9.80;80.00;;;;;;5056316;28;20120;-80
2022/11/24 10:20:04;;;;;;;;;;;9.90;79.90;;;;;;5073421;28;20066;-80
2022/11/24 10:22:50;;;;;;;6.80;3.38;;;9.90;79.80;;;;;;5060229;28;19955;-80
2022/11/24 10:25:27;;;;;;;7.50;4.05;;;9.90;79.90;;;;;;5093462;28;20131;-80
2022/11/24 10:28:02;;;;;;;7.20;3.58;;;10.00;79.80;;;;;;5076439;28;20458;-80
2022/11/24 10:30:28;;;;;;;7.35;4.07;;;10.00;79.70;;;;;;5093206;28;20479;-79
2022/11/24 10:33:02;;;;;;;6.65;3.50;;;10.10;79.70;;;;;;5076096;28;20071;-80
2022/11/24 10:35:48;;;;;;;7.60;4.18;;;10.10;79.50;;;;;;5093089;28;20061;-79
2022/11/24 10:38:20;;;;;;;7.82;3.83;;;10.20;79.30;;;;;;5093084;28;20044;-80
2022/11/24 10:41:01;;;;;;;7.55;3.70;;;10.20;79.30;;;;;;5092660;28;20123;-80
2022/11/24 10:43:28;;;;;;;5.40;3.28;;;10.20;79.20;;;;;;5075996;28;20039;-80
2022/11/24 10:46:15;;;;;;;8.27;3.97;;;10.20;79.10;;;;;;5076052;28;20132;-80
2022/11/24 10:48:56;;;;;;;7.57;4.05;;;10.30;78.90;;;;;;5075610;28;20126;-79
2022/11/24 10:51:52;;;;;;;6.28;3.78;;;10.30;78.90;;;;;;5075659;28;20044;-79
2022/11/24 10:54:20;;;;;;;11.38;4.60;;;10.40;78.80;;;;;;5092887;28;20093;-79
2022/11/24 10:56:52;;;;;;;10.80;4.93;;;10.40;78.90;;;;;;5093054;28;20093;-80
2022/11/24 10:59:28;;;;;;;8.82;4.20;;;10.40;79.00;;;;;;5092618;28;20048;-80
2022/11/24 11:01:54;;;;;;;8.10;4.68;;;10.40;79.20;;;;;;5092670;28;20040;-80
2022/11/24 11:04:32;;;;;;;9.70;5.75;;;10.40;78.80;;;;;;5091016;28;20043;-80
2022/11/24 11:07:18;;;;;;;8.45;5.18;;;10.50;78.80;;;;;;5118549;27;20043;-80
2022/11/24 11:09:45;;;;;;;9.98;4.78;;;10.50;78.60;;;;;;5098293;28;20044;-79
2022/11/24 11:12:22;;;;;;;8.82;4.35;;;10.50;78.60;;;;;;5100754;28;20050;-80
2022/11/24 11:14:49;;;;;;;11.38;5.45;;;10.50;78.50;;;;;;5101335;28;20040;-80
2022/11/24 11:17:34;;;;;;;11.50;5.22;;;10.50;78.50;;;;;;5087390;28;20040;-80
2022/11/24 11:20:17;;;;;;;14.38;5.32;;;10.50;78.40;;;;;;5100815;28;20110;-80
2022/11/24 11:22:45;;;;;;;8.38;4.55;;;10.60;78.50;;;;;;5102809;28;20040;-79
2022/11/24 11:25:11;;;;;;;9.77;4.95;;;10.50;78.60;;;;;;5102514;28;20559;-80
2022/11/24 11:27:38;;;;;;;9.20;4.65;;;10.60;78.60;;;;;;5103602;28;20047;-80
2022/11/24 11:30:24;;;;;;;11.15;5.43;;;10.60;78.60;;;;;;5099441;28;20082;-80
2022/11/24 11:32:56;;;;;;;10.82;4.43;;;10.60;78.50;;;;;;5101942;28;20114;-79
2022/11/24 11:35:27;;;;;;;8.07;4.63;;;10.60;78.60;;;;;;5083523;28;20047;-80
2022/11/24 11:37:57;;;;;;;11.20;4.70;;;10.60;78.60;;;;;;5087180;28;20040;-80
2022/11/24 11:40:27;;;;;;;15.48;5.22;;;10.60;78.60;;;;;;5102401;28;20024;-80
2022/11/24 11:43:03;;;;;;;11.13;5.15;;;10.60;78.60;;;;;;5100479;28;20047;-79
2022/11/24 11:45:38;;;;;;;8.88;4.72;;;10.60;78.60;;;;;;5095092;28;20036;-80
2022/11/24 11:48:27;;;;;;;9.55;4.57;;;10.60;78.60;;;;;;5082515;28;20079;-80
2022/11/24 11:51:06;;;;;;;9.95;3.95;;;10.60;78.50;;;;;;5097171;28;20048;-79
2022/11/24 11:53:49;;;;;;;11.52;4.25;;;10.60;78.50;;;;;;5084529;28;20079;-79
2022/11/24 11:56:31;;;;;;;13.60;4.78;;;10.60;78.60;;;;;;5106816;28;20031;-79
2022/11/24 11:59:31;;;;;;;11.40;4.20;;;10.60;78.60;;;;;;5103785;28;20495;-79
2022/11/24 12:02:17;;;;;;;12.30;4.22;;;10.70;78.90;;;;;;5102473;28;20168;-80
2022/11/24 12:04:59;;;;;;;13.35;4.30;;;10.60;78.80;;;;;;5084168;28;20096;-80
2022/11/24 12:07:31;;;;;;;10.00;3.65;;;10.60;79.10;;;;;;5099084;28;20040;-79
2022/11/24 12:10:33;;;;;;;11.27;3.60;;;10.70;78.80;;;;;;5101316;28;20043;-80
2022/11/24 12:13:08;;;;;;;10.93;3.70;;;10.70;78.70;;;;;;5098889;28;20039;-80
2022/11/24 12:15:38;;;;;;;;;;;10.70;78.80;;;;;;5084558;28;20046;-80
2022/11/24 12:18:26;;;;;;;10.80;3.92;;;10.70;78.80;;;;;;5105050;28;20331;-79
2022/11/24 12:21:25;;;;;;;16.60;4.13;;;10.70;79.00;;;;;;5101736;28;20449;-81
2022/11/24 12:24:09;;;;;;;10.25;4.10;;;10.60;79.10;;;;;;5085562;28;20047;-80
2022/11/24 12:26:53;;;;;;;9.32;2.90;;;10.70;78.80;;;;;;5104436;28;20051;-80
2022/11/24 12:29:33;;;;;;;12.20;3.15;;;10.70;78.80;;;;;;5105015;28;20043;-80
2022/11/24 12:32:23;;;;;;;12.95;3.17;;;10.70;78.80;;;;;;5085329;28;20059;-79
2022/11/24 12:35:04;;;;;;;11.40;3.20;;;10.70;78.80;;;;;;5103633;28;20036;-81
2022/11/24 12:37:39;;;;;;;14.55;3.55;;;10.70;78.80;;;;;;5101197;28;20486;-80
2022/11/24 12:40:12;;;;;;;;;;;10.70;78.80;;;;;;5120428;27;20076;-81
2022/11/24 12:43:15;;;;;;;9.38;3.30;;;10.70;78.70;;;;;;5102059;28;19924;-80
2022/11/24 12:46:03;;;;;;;12.73;3.00;;;10.70;78.80;;;;;;5103183;28;20036;-80
2022/11/24 12:48:47;;;;;;;15.18;3.25;;;10.70;78.80;;;;;;5103638;28;20040;-71
2022/11/24 12:51:26;;;;;;;12.20;3.38;;;10.70;78.80;;;;;;5104843;28;20051;-72
2022/11/24 12:53:54;;;;;;;9.65;2.80;;;10.80;78.80;;;;;;5087357;28;20509;-72
2022/11/24 12:56:32;;;;;;;17.10;3.83;;;10.70;78.70;;;;;;5104418;28;20127;-71
2022/11/24 12:59:09;;;;;;;10.40;2.97;;;10.80;78.60;;;;;;5088481;28;20043;-71
2022/11/24 13:02:21;;;;;;;12.55;2.90;;;10.70;78.60;;;;;;5087553;28;20043;-72
2022/11/24 13:05:01;;;;;;;15.10;3.45;;;10.70;78.40;;;;;;5086794;28;20101;-72